Anderson Acres, Nevada
Current Conditions -  °F | °C
As of 12:15 PM on Sunday 25 Jan 2015 (Local Time) from KRTS Reporting Station
Clear Clear  
Wind Chill: 55°   Ceiling: Unl
Heat Index: 55°   Visibility: 10mi
Dew Point: 25°   Wind: 9mph
Humidity: 31%   Direction: 120°ESE
Pressure: 30.36"   Gusts: NA
Location:  39.7378°N, 119.889°W
Report Text: KRTS 252015Z AUTO 12008KT 10SM CLR 13/M04 A3036 RMK AO2
Loading
Personal Weather Stations






























Interactive Weather Map New forecast layout! Learn more

10-Day Weather Forecast

Advertisements
Track Severe Weather on mobile